GBB422 FAGG-FACT
Flight info
| Callsign | GBB422 |
|---|---|
| Flight time | 0h 33m |
| Altitude | 26000 |
| Route | DCT GRV DCT ETBUL UQ49 ESRUK UQ51 GETEN DCT |
| Aircraft | A320/M-SDE3FGHIRWY/LB1 |
Departure
| Time | 2026-04-12 11:10 |
|---|---|
| Airport | George Airport (FAGG) |
Arrival
| Time | 2026-04-12 11:44 |
|---|---|
| Airport | Cape Town International Airport (FACT) |
| Time | Latitude | Longitude | Altitude | Speed | Heading |
|---|---|---|---|---|---|
| 2026-04-12 11:07 | -34.00320 | 22.38501 | 642 ft | 17 kts | 88° |
| 2026-04-12 11:07 | -34.00316 | 22.38635 | 644 ft | 16 kts | 88° |
| 2026-04-12 11:08 | -34.00311 | 22.38764 | 645 ft | 13 kts | 88° |
| 2026-04-12 11:08 | -34.00315 | 22.38858 | 646 ft | 7 kts | 108° |
| 2026-04-12 11:08 | -34.00330 | 22.38885 | 647 ft | 0 kts | 133° |
| 2026-04-12 11:09 | -34.00339 | 22.38894 | 647 ft | 4 kts | 142° |
| 2026-04-12 11:09 | -34.00374 | 22.38912 | 648 ft | 7 kts | 168° |
| 2026-04-12 11:09 | -34.00428 | 22.38916 | 647 ft | 9 kts | 177° |
| 2026-04-12 11:09 | -34.00505 | 22.38915 | 648 ft | 12 kts | 200° |
| 2026-04-12 11:10 | -34.00522 | 22.38807 | 645 ft | 17 kts | 268° |
| 2026-04-12 11:10 | -34.00537 | 22.38343 | 638 ft | 103 kts | 268° |
| 2026-04-12 11:10 | -34.00572 | 22.37201 | 869 ft | 151 kts | 268° |
| 2026-04-12 11:10 | -34.00612 | 22.35902 | 1710 ft | 161 kts | 268° |
| 2026-04-12 11:11 | -34.00654 | 22.34569 | 2491 ft | 155 kts | 268° |
| 2026-04-12 11:11 | -34.00667 | 22.33196 | 2888 ft | 175 kts | 270° |
| 2026-04-12 11:11 | -34.00660 | 22.31629 | 3199 ft | 198 kts | 270° |
| 2026-04-12 11:11 | -34.00647 | 22.29856 | 3598 ft | 224 kts | 270° |
| 2026-04-12 11:12 | -34.00633 | 22.27880 | 4086 ft | 248 kts | 270° |
| 2026-04-12 11:12 | -34.00617 | 22.25728 | 4812 ft | 263 kts | 270° |
| 2026-04-12 11:12 | -34.00603 | 22.23499 | 5740 ft | 268 kts | 270° |
| 2026-04-12 11:12 | -34.00591 | 22.21235 | 6687 ft | 272 kts | 270° |
| 2026-04-12 11:13 | -34.00580 | 22.18969 | 7610 ft | 276 kts | 270° |
| 2026-04-12 11:13 | -34.00566 | 22.16642 | 8527 ft | 280 kts | 270° |
| 2026-04-12 11:13 | -34.00552 | 22.14284 | 9416 ft | 283 kts | 270° |
| 2026-04-12 11:13 | -34.00541 | 22.11889 | 10211 ft | 291 kts | 270° |
| 2026-04-12 11:14 | -34.00530 | 22.09349 | 10529 ft | 315 kts | 270° |
| 2026-04-12 11:14 | -34.00518 | 22.06608 | 10779 ft | 338 kts | 270° |
| 2026-04-12 11:14 | -34.00501 | 22.03689 | 11172 ft | 354 kts | 270° |
| 2026-04-12 11:14 | -34.00481 | 22.00692 | 11858 ft | 360 kts | 270° |
| 2026-04-12 11:15 | -34.00459 | 21.97655 | 12584 ft | 365 kts | 270° |
| 2026-04-12 11:15 | -34.00437 | 21.94613 | 13302 ft | 369 kts | 270° |
| 2026-04-12 11:15 | -34.00414 | 21.91501 | 14042 ft | 373 kts | 270° |
| 2026-04-12 11:15 | -34.00388 | 21.88358 | 14768 ft | 377 kts | 270° |
| 2026-04-12 11:16 | -34.00362 | 21.85176 | 15463 ft | 381 kts | 270° |
| 2026-04-12 11:16 | -34.00337 | 21.81965 | 16132 ft | 385 kts | 270° |
| 2026-04-12 11:16 | -34.00313 | 21.78725 | 16789 ft | 389 kts | 270° |
| 2026-04-12 11:16 | -34.00290 | 21.75454 | 17453 ft | 392 kts | 270° |
| 2026-04-12 11:17 | -34.00265 | 21.72153 | 18097 ft | 396 kts | 270° |
| 2026-04-12 11:17 | -34.00236 | 21.68819 | 18743 ft | 400 kts | 270° |
| 2026-04-12 11:17 | -34.00204 | 21.65454 | 19412 ft | 403 kts | 270° |
| 2026-04-12 11:17 | -34.00169 | 21.62054 | 20067 ft | 407 kts | 270° |
| 2026-04-12 11:18 | -34.00135 | 21.58671 | 20682 ft | 411 kts | 270° |
| 2026-04-12 11:18 | -34.00100 | 21.55211 | 21267 ft | 415 kts | 270° |
| 2026-04-12 11:18 | -34.00066 | 21.51713 | 21834 ft | 419 kts | 270° |
| 2026-04-12 11:18 | -34.00029 | 21.48191 | 22375 ft | 422 kts | 271° |
| 2026-04-12 11:19 | -33.99991 | 21.44635 | 22841 ft | 426 kts | 271° |
| 2026-04-12 11:19 | -33.99950 | 21.41062 | 22979 ft | 427 kts | 271° |
| 2026-04-12 11:19 | -33.99907 | 21.37562 | 23011 ft | 427 kts | 271° |
| 2026-04-12 11:19 | -33.99863 | 21.33904 | 23009 ft | 427 kts | 271° |
| 2026-04-12 11:20 | -33.99818 | 21.30321 | 23010 ft | 427 kts | 271° |
| 2026-04-12 11:20 | -33.99768 | 21.26739 | 23009 ft | 427 kts | 271° |
| 2026-04-12 11:20 | -33.99717 | 21.23159 | 23009 ft | 427 kts | 271° |
| 2026-04-12 11:20 | -33.99665 | 21.19583 | 23010 ft | 427 kts | 271° |
| 2026-04-12 11:21 | -33.99614 | 21.16057 | 23009 ft | 427 kts | 271° |
| 2026-04-12 11:21 | -33.99564 | 21.12482 | 23009 ft | 427 kts | 271° |
| 2026-04-12 11:21 | -33.99512 | 21.08862 | 23007 ft | 427 kts | 271° |
| 2026-04-12 11:21 | -33.99462 | 21.05333 | 23010 ft | 426 kts | 271° |
| 2026-04-12 11:22 | -33.99410 | 21.01761 | 23008 ft | 426 kts | 271° |
| 2026-04-12 11:22 | -33.99356 | 20.98190 | 23009 ft | 426 kts | 271° |
| 2026-04-12 11:22 | -33.99301 | 20.94617 | 23009 ft | 426 kts | 271° |
| 2026-04-12 11:22 | -33.99243 | 20.91051 | 23009 ft | 426 kts | 271° |
| 2026-04-12 11:23 | -33.99182 | 20.87480 | 23007 ft | 426 kts | 271° |
| 2026-04-12 11:23 | -33.99118 | 20.83911 | 23009 ft | 426 kts | 271° |
| 2026-04-12 11:23 | -33.99056 | 20.80343 | 23010 ft | 426 kts | 271° |
| 2026-04-12 11:23 | -33.98994 | 20.76768 | 23007 ft | 427 kts | 271° |
| 2026-04-12 11:24 | -33.98932 | 20.73191 | 23007 ft | 427 kts | 271° |
| 2026-04-12 11:24 | -33.98868 | 20.69617 | 23009 ft | 426 kts | 271° |
| 2026-04-12 11:24 | -33.98805 | 20.66042 | 23008 ft | 426 kts | 271° |
| 2026-04-12 11:24 | -33.98742 | 20.62465 | 23009 ft | 427 kts | 271° |
| 2026-04-12 11:25 | -33.98676 | 20.58885 | 23010 ft | 428 kts | 271° |
| 2026-04-12 11:25 | -33.98606 | 20.55295 | 23008 ft | 428 kts | 271° |
| 2026-04-12 11:25 | -33.98537 | 20.51710 | 23010 ft | 428 kts | 271° |
| 2026-04-12 11:25 | -33.98466 | 20.48121 | 23009 ft | 429 kts | 271° |
| 2026-04-12 11:26 | -33.98394 | 20.44526 | 23009 ft | 429 kts | 271° |
| 2026-04-12 11:26 | -33.98321 | 20.40933 | 23009 ft | 428 kts | 271° |
| 2026-04-12 11:26 | -33.98247 | 20.37391 | 23010 ft | 428 kts | 271° |
| 2026-04-12 11:26 | -33.98171 | 20.33815 | 23009 ft | 427 kts | 271° |
| 2026-04-12 11:27 | -33.98096 | 20.30237 | 23010 ft | 426 kts | 271° |
| 2026-04-12 11:27 | -33.98021 | 20.26670 | 23009 ft | 426 kts | 271° |
| 2026-04-12 11:27 | -33.97948 | 20.23100 | 22814 ft | 432 kts | 271° |
| 2026-04-12 11:27 | -33.97873 | 20.19407 | 22558 ft | 446 kts | 271° |
| 2026-04-12 11:28 | -33.97792 | 20.15658 | 22307 ft | 448 kts | 271° |
| 2026-04-12 11:28 | -33.97707 | 20.11913 | 22057 ft | 447 kts | 271° |
| 2026-04-12 11:28 | -33.97619 | 20.08171 | 21806 ft | 446 kts | 271° |
| 2026-04-12 11:28 | -33.97531 | 20.04432 | 21556 ft | 445 kts | 271° |
| 2026-04-12 11:29 | -33.97443 | 20.00716 | 21305 ft | 443 kts | 271° |
| 2026-04-12 11:29 | -33.97355 | 19.97015 | 21053 ft | 442 kts | 271° |
| 2026-04-12 11:29 | -33.97265 | 19.93325 | 20798 ft | 440 kts | 271° |
| 2026-04-12 11:29 | -33.97178 | 19.89648 | 20554 ft | 439 kts | 271° |
| 2026-04-12 11:30 | -33.97090 | 19.85980 | 20303 ft | 437 kts | 271° |
| 2026-04-12 11:30 | -33.96959 | 19.82375 | 20054 ft | 435 kts | 275° |
| 2026-04-12 11:30 | -33.96453 | 19.78788 | 19803 ft | 434 kts | 284° |
| 2026-04-12 11:30 | -33.95606 | 19.75310 | 19555 ft | 433 kts | 287° |
| 2026-04-12 11:31 | -33.94733 | 19.71842 | 19305 ft | 432 kts | 287° |
| 2026-04-12 11:31 | -33.93867 | 19.68392 | 19044 ft | 430 kts | 287° |
| 2026-04-12 11:31 | -33.93004 | 19.64957 | 18804 ft | 428 kts | 287° |
| 2026-04-12 11:31 | -33.92147 | 19.61542 | 18266 ft | 424 kts | 287° |
| 2026-04-12 11:32 | -33.91300 | 19.58159 | 17483 ft | 420 kts | 287° |
| 2026-04-12 11:32 | -33.90460 | 19.54800 | 16758 ft | 416 kts | 287° |
| 2026-04-12 11:32 | -33.89628 | 19.51485 | 16054 ft | 412 kts | 287° |
| 2026-04-12 11:32 | -33.88797 | 19.48191 | 15375 ft | 409 kts | 287° |
| 2026-04-12 11:33 | -33.87971 | 19.44933 | 14713 ft | 405 kts | 287° |
| 2026-04-12 11:33 | -33.87150 | 19.41700 | 14048 ft | 402 kts | 287° |
| 2026-04-12 11:33 | -33.86337 | 19.38496 | 13370 ft | 399 kts | 287° |
| 2026-04-12 11:33 | -33.85533 | 19.35320 | 12663 ft | 396 kts | 287° |
| 2026-04-12 11:34 | -33.84735 | 19.32170 | 11956 ft | 392 kts | 287° |
| 2026-04-12 11:34 | -33.83942 | 19.29042 | 11241 ft | 389 kts | 287° |
| 2026-04-12 11:34 | -33.83177 | 19.26024 | 11004 ft | 373 kts | 287° |
| 2026-04-12 11:34 | -33.82430 | 19.23083 | 10873 ft | 354 kts | 287° |
| 2026-04-12 11:35 | -33.81730 | 19.20316 | 10747 ft | 338 kts | 287° |
| 2026-04-12 11:35 | -33.81074 | 19.17704 | 10623 ft | 324 kts | 287° |
| 2026-04-12 11:35 | -33.80440 | 19.15158 | 10502 ft | 312 kts | 286° |
| 2026-04-12 11:35 | -33.79833 | 19.12699 | 10383 ft | 301 kts | 286° |
| 2026-04-12 11:36 | -33.79238 | 19.10317 | 10197 ft | 294 kts | 287° |
| 2026-04-12 11:36 | -33.78633 | 19.07990 | 9976 ft | 292 kts | 287° |
| 2026-04-12 11:36 | -33.78005 | 19.05648 | 9479 ft | 297 kts | 288° |
| 2026-04-12 11:36 | -33.77375 | 19.03275 | 9053 ft | 298 kts | 285° |
| 2026-04-12 11:37 | -33.76964 | 19.00853 | 8714 ft | 295 kts | 277° |
| 2026-04-12 11:37 | -33.76839 | 18.98409 | 8384 ft | 292 kts | 269° |
| 2026-04-12 11:37 | -33.76979 | 18.95980 | 7919 ft | 293 kts | 263° |
| 2026-04-12 11:37 | -33.77357 | 18.93531 | 7305 ft | 300 kts | 257° |
| 2026-04-12 11:38 | -33.77918 | 18.91149 | 6889 ft | 299 kts | 251° |
| 2026-04-12 11:38 | -33.78652 | 18.88815 | 6470 ft | 298 kts | 248° |
| 2026-04-12 11:38 | -33.79450 | 18.86514 | 6011 ft | 299 kts | 247° |
| 2026-04-12 11:38 | -33.80281 | 18.84211 | 5534 ft | 299 kts | 246° |
| 2026-04-12 11:39 | -33.81096 | 18.81976 | 5125 ft | 285 kts | 246° |
| 2026-04-12 11:39 | -33.81908 | 18.79832 | 4506 ft | 280 kts | 245° |
| 2026-04-12 11:39 | -33.82722 | 18.77723 | 3841 ft | 277 kts | 245° |
| 2026-04-12 11:39 | -33.83517 | 18.75630 | 3289 ft | 271 kts | 245° |
| 2026-04-12 11:40 | -33.84290 | 18.73601 | 2821 ft | 263 kts | 245° |
| 2026-04-12 11:40 | -33.85053 | 18.71652 | 2495 ft | 251 kts | 244° |
| 2026-04-12 11:40 | -33.85805 | 18.69819 | 2209 ft | 238 kts | 243° |
| 2026-04-12 11:40 | -33.86539 | 18.68111 | 2039 ft | 226 kts | 242° |
| 2026-04-12 11:41 | -33.87247 | 18.66527 | 1950 ft | 204 kts | 242° |
| 2026-04-12 11:41 | -33.87917 | 18.65079 | 1850 ft | 190 kts | 240° |
| 2026-04-12 11:41 | -33.88537 | 18.63802 | 1828 ft | 164 kts | 239° |
| 2026-04-12 11:41 | -33.89153 | 18.62751 | 1686 ft | 147 kts | 230° |
| 2026-04-12 11:42 | -33.89868 | 18.61921 | 1456 ft | 140 kts | 219° |
| 2026-04-12 11:42 | -33.90657 | 18.61250 | 1248 ft | 138 kts | 213° |
| 2026-04-12 11:42 | -33.91483 | 18.60668 | 1078 ft | 137 kts | 208° |
| 2026-04-12 11:43 | -33.93235 | 18.59815 | 744 ft | 137 kts | 194° |
| 2026-04-12 11:43 | -33.94175 | 18.59647 | 574 ft | 137 kts | 184° |
| 2026-04-12 11:43 | -33.95122 | 18.59718 | 394 ft | 137 kts | 166° |
| 2026-04-12 11:43 | -33.96041 | 18.60024 | 214 ft | 136 kts | 166° |
| 2026-04-12 11:44 | -33.96924 | 18.60304 | 159 ft | 118 kts | 165° |
| 2026-04-12 11:44 | -33.97554 | 18.60502 | 150 ft | 69 kts | 165° |
| 2026-04-12 11:44 | -33.97769 | 18.60568 | 154 ft | 11 kts | 180° |
| 2026-04-12 11:44 | -33.97784 | 18.60484 | 154 ft | 13 kts | 283° |
| 2026-04-12 11:45 | -33.97767 | 18.60407 | 158 ft | 6 kts | 285° |
| 2026-04-12 11:45 | -33.97753 | 18.60347 | 163 ft | 9 kts | 285° |
| 2026-04-12 11:45 | -33.97736 | 18.60271 | 164 ft | 11 kts | 285° |
| 2026-04-12 11:45 | -33.97702 | 18.60186 | 164 ft | 12 kts | 334° |
| 2026-04-12 11:46 | -33.97613 | 18.60144 | 164 ft | 15 kts | 339° |
| 2026-04-12 11:46 | -33.97512 | 18.60094 | 164 ft | 16 kts | 336° |
| 2026-04-12 11:46 | -33.97404 | 18.60053 | 164 ft | 17 kts | 345° |
| 2026-04-12 11:46 | -33.97295 | 18.60017 | 164 ft | 11 kts | 345° |
| 2026-04-12 11:47 | -33.97219 | 18.59991 | 164 ft | 9 kts | 345° |
| 2026-04-12 11:47 | -33.97173 | 18.59976 | 164 ft | 5 kts | 345° |
| 2026-04-12 11:47 | -33.97140 | 18.59965 | 164 ft | 4 kts | 345° |
| 2026-04-12 11:47 | -33.97105 | 18.59955 | 164 ft | 7 kts | 348° |
| 2026-04-12 11:48 | -33.97051 | 18.59938 | 164 ft | 10 kts | 343° |
| 2026-04-12 11:48 | -33.96989 | 18.59931 | 164 ft | 7 kts | 6° |
| 2026-04-12 11:48 | -33.96966 | 18.59986 | 164 ft | 8 kts | 75° |
| 2026-04-12 11:48 | -33.96961 | 18.60008 | 164 ft | 2 kts | 75° |
| 2026-04-12 11:49 | -33.96960 | 18.60015 | 164 ft | 0 kts | 75° |